Time,TemperatureF,DewpointF,PressureIn,WindDirection,WindDirectionDegrees,WindSpeedMPH,WindSpeedGustMPH,Humidity,HourlyPrecipIn,Conditions,Clouds,dailyrainin,SoftwareType,DateUTC
2013-10-26 00:02:00,39.9,29.5,30.08,South,181,3.0,5.0,66,0.00,,,0.00,Wunderground v.1.15,2013-10-26 05:02:00,
2013-10-26 00:08:00,39.6,29.5,30.07,SSW,213,3.0,5.0,67,0.00,,,0.00,Wunderground v.1.15,2013-10-26 05:08:00,
2013-10-26 00:14:00,39.5,29.4,30.07,SW,223,4.0,4.0,67,0.00,,,0.00,Wunderground v.1.15,2013-10-26 05:14:00,
2013-10-26 00:20:00,39.4,29.7,30.06,SW,231,4.0,4.0,68,0.00,,,0.00,Wunderground v.1.15,2013-10-26 05:20:00,
2013-10-26 00:26:00,39.4,29.7,30.06,SW,223,4.0,4.0,68,0.00,,,0.00,Wunderground v.1.15,2013-10-26 05:26:00,
2013-10-26 00:32:00,39.3,29.6,30.06,SW,219,4.0,6.0,68,0.00,,,0.00,Wunderground v.1.15,2013-10-26 05:32:00,
2013-10-26 00:38:00,39.1,29.8,30.06,SW,221,4.0,8.0,69,0.00,,,0.00,Wunderground v.1.15,2013-10-26 05:38:00,
2013-10-26 00:44:00,39.0,29.3,30.06,SW,225,4.0,4.0,68,0.00,,,0.00,Wunderground v.1.15,2013-10-26 05:44:00,
2013-10-26 00:50:00,38.9,29.6,30.06,SSW,202,4.0,8.0,69,0.00,,,0.00,Wunderground v.1.15,2013-10-26 05:50:00,
2013-10-26 00:56:00,38.8,29.5,30.05,SW,221,4.0,8.0,69,0.00,,,0.00,Wunderground v.1.15,2013-10-26 05:56:00,
2013-10-26 01:02:00,38.7,29.4,30.06,SSW,196,4.0,6.0,69,0.00,,,0.00,Wunderground v.1.15,2013-10-26 06:02:00,
2013-10-26 01:08:00,38.6,29.3,30.06,SW,214,4.0,6.0,69,0.00,,,0.00,Wunderground v.1.15,2013-10-26 06:08:00,
2013-10-26 01:14:00,38.3,29.4,30.06,SW,218,3.0,3.0,70,0.00,,,0.00,Wunderground v.1.15,2013-10-26 06:14:00,
2013-10-26 01:20:00,38.1,29.2,30.06,SW,217,2.0,2.0,70,0.00,,,0.00,Wunderground v.1.15,2013-10-26 06:20:00,
2013-10-26 01:26:00,37.9,29.3,30.05,SSW,211,1.0,3.0,71,0.00,,,0.00,Wunderground v.1.15,2013-10-26 06:26:00,
2013-10-26 01:32:00,37.8,29.6,30.05,SW,229,1.0,3.0,72,0.00,,,0.00,Wunderground v.1.15,2013-10-26 06:32:00,
2013-10-26 01:38:00,37.9,29.7,30.05,SSW,211,1.0,3.0,72,0.00,,,0.00,Wunderground v.1.15,2013-10-26 06:38:00,
2013-10-26 01:44:00,38.1,29.9,30.05,SSW,205,1.0,3.0,72,0.00,,,0.00,Wunderground v.1.15,2013-10-26 06:44:00,
2013-10-26 01:50:00,38.5,29.9,30.04,SSW,211,1.0,1.0,71,0.00,,,0.00,Wunderground v.1.15,2013-10-26 06:50:00,
2013-10-26 01:56:00,38.9,30.3,30.04,SW,221,2.0,3.0,71,0.00,,,0.00,Wunderground v.1.15,2013-10-26 06:56:00,
2013-10-26 02:02:00,39.2,30.2,30.03,SW,218,2.0,4.0,70,0.00,,,0.00,Wunderground v.1.15,2013-10-26 07:02:00,
2013-10-26 02:08:00,39.5,30.2,30.03,SSW,198,2.0,5.0,69,0.00,,,0.00,Wunderground v.1.15,2013-10-26 07:08:00,
2013-10-26 02:14:00,39.8,30.5,30.02,SW,217,2.0,3.0,69,0.00,,,0.00,Wunderground v.1.15,2013-10-26 07:14:00,
2013-10-26 02:20:00,39.9,30.5,30.02,SW,232,1.0,5.0,69,0.00,,,0.00,Wunderground v.1.15,2013-10-26 07:20:00,
2013-10-26 02:26:00,40.0,30.3,30.02,SSW,213,3.0,5.0,68,0.00,,,0.00,Wunderground v.1.15,2013-10-26 07:26:00,
2013-10-26 02:32:00,40.0,30.3,30.01,SSW,196,4.0,5.0,68,0.00,,,0.00,Wunderground v.1.15,2013-10-26 07:32:00,
2013-10-26 02:38:00,40.1,30.4,30.01,SSW,199,4.0,9.0,68,0.00,,,0.00,Wunderground v.1.15,2013-10-26 07:38:00,
2013-10-26 02:44:00,40.1,30.4,30.00,SSW,194,3.0,4.0,68,0.00,,,0.00,Wunderground v.1.15,2013-10-26 07:44:00,
2013-10-26 02:50:00,40.2,30.5,30.00,South,187,3.0,4.0,68,0.00,,,0.00,Wunderground v.1.15,2013-10-26 07:50:00,
2013-10-26 02:56:00,40.3,30.2,29.99,SW,223,4.0,6.0,67,0.00,,,0.00,Wunderground v.1.15,2013-10-26 07:56:00,
2013-10-26 03:02:00,40.5,30.8,29.99,SW,231,4.0,4.0,68,0.00,,,0.00,Wunderground v.1.15,2013-10-26 08:02:00,
2013-10-26 03:08:00,40.6,30.5,29.98,SSW,213,3.0,4.0,67,0.00,,,0.00,Wunderground v.1.15,2013-10-26 08:08:00,
2013-10-26 03:14:00,40.7,30.6,29.97,WSW,242,4.0,9.0,67,0.00,,,0.00,Wunderground v.1.15,2013-10-26 08:14:00,
2013-10-26 03:20:00,41.0,30.5,29.97,SW,222,5.0,6.0,66,0.00,,,0.00,Wunderground v.1.15,2013-10-26 08:20:00,
2013-10-26 03:26:00,41.2,30.7,29.96,SSW,211,4.0,6.0,66,0.00,,,0.00,Wunderground v.1.15,2013-10-26 08:26:00,
2013-10-26 03:32:00,41.5,31.0,29.95,SW,215,4.0,6.0,66,0.00,,,0.00,Wunderground v.1.15,2013-10-26 08:32:00,
2013-10-26 03:38:00,41.6,31.1,29.95,SSW,213,4.0,6.0,66,0.00,,,0.00,Wunderground v.1.15,2013-10-26 08:38:00,
2013-10-26 03:44:00,41.9,31.0,29.95,SW,217,3.0,4.0,65,0.00,,,0.00,Wunderground v.1.15,2013-10-26 08:44:00,
2013-10-26 03:50:00,42.9,30.8,29.94,SW,219,4.0,6.0,62,0.00,,,0.00,Wunderground v.1.15,2013-10-26 08:50:00,
2013-10-26 03:56:00,43.6,30.6,29.94,SW,215,6.0,8.0,60,0.00,,,0.00,Wunderground v.1.15,2013-10-26 08:56:00,
2013-10-26 04:02:00,43.8,30.8,29.94,SSW,213,7.0,7.0,60,0.00,,,0.00,Wunderground v.1.15,2013-10-26 09:02:00,
2013-10-26 04:08:00,43.8,30.4,29.94,SW,224,6.0,7.0,59,0.00,,,0.00,Wunderground v.1.15,2013-10-26 09:08:00,
2013-10-26 04:14:00,44.1,30.7,29.94,SSW,209,7.0,13.0,59,0.00,,,0.00,Wunderground v.1.15,2013-10-26 09:14:00,
2013-10-26 04:20:00,43.9,30.5,29.93,SW,227,7.0,7.0,59,0.00,,,0.00,Wunderground v.1.15,2013-10-26 09:20:00,
2013-10-26 04:26:00,43.7,30.3,29.93,SW,222,6.0,11.0,59,0.00,,,0.00,Wunderground v.1.15,2013-10-26 09:26:00,
2013-10-26 04:32:00,43.6,30.6,29.93,WSW,238,7.0,9.0,60,0.00,,,0.00,Wunderground v.1.15,2013-10-26 09:32:00,
2013-10-26 04:38:00,43.5,30.5,29.93,SW,225,6.0,9.0,60,0.00,,,0.00,Wunderground v.1.15,2013-10-26 09:38:00,
2013-10-26 04:44:00,43.4,30.4,29.93,SW,234,6.0,12.0,60,0.00,,,0.00,Wunderground v.1.15,2013-10-26 09:44:00,
2013-10-26 04:50:00,43.3,30.7,29.92,SW,221,6.0,9.0,61,0.00,,,0.00,Wunderground v.1.15,2013-10-26 09:50:00,
2013-10-26 04:56:00,43.0,30.5,29.92,SW,221,6.0,9.0,61,0.00,,,0.00,Wunderground v.1.15,2013-10-26 09:56:00,
2013-10-26 05:02:00,42.7,30.2,29.92,South,182,7.0,10.0,61,0.00,,,0.00,Wunderground v.1.15,2013-10-26 10:02:00,
2013-10-26 05:08:00,42.4,30.3,29.92,SW,233,7.0,10.0,62,0.00,,,0.00,Wunderground v.1.15,2013-10-26 10:08:00,
2013-10-26 05:14:00,42.3,30.2,29.91,SW,227,7.0,13.0,62,0.00,,,0.00,Wunderground v.1.15,2013-10-26 10:14:00,
2013-10-26 05:20:00,42.0,30.3,29.91,SW,234,7.0,9.0,63,0.00,,,0.00,Wunderground v.1.15,2013-10-26 10:20:00,
2013-10-26 05:26:00,41.8,30.5,29.91,SSW,209,7.0,9.0,64,0.00,,,0.00,Wunderground v.1.15,2013-10-26 10:26:00,
2013-10-26 05:32:00,41.7,30.4,29.91,SW,221,7.0,7.0,64,0.00,,,0.00,Wunderground v.1.15,2013-10-26 10:32:00,
2013-10-26 05:38:00,41.6,30.3,29.91,SW,227,6.0,7.0,64,0.00,,,0.00,Wunderground v.1.15,2013-10-26 10:38:00,
2013-10-26 05:44:00,41.5,30.6,29.91,SW,225,6.0,6.0,65,0.00,,,0.00,Wunderground v.1.15,2013-10-26 10:44:00,
2013-10-26 05:50:00,41.5,30.6,29.91,SW,225,6.0,6.0,65,0.00,,,0.00,Wunderground v.1.15,2013-10-26 10:50:00,
2013-10-26 05:56:00,41.5,30.6,29.91,WSW,246,7.0,8.0,65,0.00,,,0.00,Wunderground v.1.15,2013-10-26 10:56:00,
2013-10-26 06:02:00,41.6,30.7,29.91,SW,227,7.0,11.0,65,0.00,,,0.00,Wunderground v.1.15,2013-10-26 11:02:00,
2013-10-26 06:08:00,41.4,30.5,29.91,SW,221,7.0,11.0,65,0.00,,,0.00,Wunderground v.1.15,2013-10-26 11:08:00,
2013-10-26 06:14:00,41.1,30.6,29.91,SW,234,6.0,7.0,66,0.00,,,0.00,Wunderground v.1.15,2013-10-26 11:14:00,
2013-10-26 06:20:00,40.9,30.4,29.91,SW,224,6.0,6.0,66,0.00,,,0.00,Wunderground v.1.15,2013-10-26 11:20:00,
2013-10-26 06:26:00,40.9,30.8,29.90,SW,224,6.0,8.0,67,0.00,,,0.00,Wunderground v.1.15,2013-10-26 11:26:00,
2013-10-26 06:32:00,40.8,30.7,29.91,SW,228,6.0,8.0,67,0.00,,,0.00,Wunderground v.1.15,2013-10-26 11:32:00,
2013-10-26 06:38:00,40.6,31.2,29.90,SW,223,5.0,8.0,69,0.00,,,0.00,Wunderground v.1.15,2013-10-26 11:38:00,
2013-10-26 06:44:00,40.8,31.4,29.90,WSW,238,5.0,9.0,69,0.00,,,0.00,Wunderground v.1.15,2013-10-26 11:44:00,
2013-10-26 06:50:00,41.2,31.4,29.90,SW,217,6.0,6.0,68,0.00,,,0.00,Wunderground v.1.15,2013-10-26 11:50:00,
2013-10-26 06:56:00,41.5,31.7,29.90,SW,215,6.0,7.0,68,0.00,,,0.00,Wunderground v.1.15,2013-10-26 11:56:00,
2013-10-26 07:02:00,41.9,31.7,29.90,SW,228,6.0,7.0,67,0.00,,,0.00,Wunderground v.1.15,2013-10-26 12:02:00,
2013-10-26 07:08:00,42.1,31.9,29.90,SW,227,7.0,7.0,67,0.00,,,0.00,Wunderground v.1.15,2013-10-26 12:08:00,
2013-10-26 07:14:00,42.3,31.7,29.89,SW,219,7.0,9.0,66,0.00,,,0.00,Wunderground v.1.15,2013-10-26 12:14:00,
2013-10-26 07:20:00,42.6,32.4,29.89,SW,230,7.0,7.0,67,0.00,,,0.00,Wunderground v.1.15,2013-10-26 12:20:00,
2013-10-26 07:26:00,43.1,32.5,29.89,SW,221,7.0,7.0,66,0.00,,,0.00,Wunderground v.1.15,2013-10-26 12:26:00,
2013-10-26 07:32:00,43.6,32.6,29.88,WSW,257,8.0,12.0,65,0.00,,,0.00,Wunderground v.1.15,2013-10-26 12:32:00,
2013-10-26 07:38:00,43.7,32.7,29.88,SW,236,8.0,12.0,65,0.00,,,0.00,Wunderground v.1.15,2013-10-26 12:38:00,
2013-10-26 07:44:00,43.9,32.9,29.88,West,260,8.0,8.0,65,0.00,,,0.00,Wunderground v.1.15,2013-10-26 12:44:00,
2013-10-26 07:50:00,44.0,33.0,29.89,SW,228,8.0,8.0,65,0.00,,,0.00,Wunderground v.1.15,2013-10-26 12:50:00,
2013-10-26 07:56:00,44.0,33.0,29.89,SW,235,7.0,8.0,65,0.00,,,0.00,Wunderground v.1.15,2013-10-26 12:56:00,
2013-10-26 08:02:00,44.0,33.0,29.89,WSW,246,7.0,7.0,65,0.00,,,0.00,Wunderground v.1.15,2013-10-26 13:02:00,
2013-10-26 08:08:00,44.1,33.1,29.89,WSW,245,8.0,8.0,65,0.00,,,0.00,Wunderground v.1.15,2013-10-26 13:08:00,
2013-10-26 08:14:00,44.1,33.5,29.89,SW,234,7.0,9.0,66,0.00,,,0.00,Wunderground v.1.15,2013-10-26 13:14:00,
2013-10-26 08:20:00,44.2,33.6,29.89,WSW,251,7.0,7.0,66,0.00,,,0.00,Wunderground v.1.15,2013-10-26 13:20:00,
2013-10-26 08:26:00,44.1,33.5,29.89,SW,217,7.0,7.0,66,0.00,,,0.00,Wunderground v.1.15,2013-10-26 13:26:00,
2013-10-26 08:32:00,44.3,33.7,29.89,SW,222,8.0,8.0,66,0.00,,,0.00,Wunderground v.1.15,2013-10-26 13:32:00,
2013-10-26 08:38:00,44.6,33.9,29.89,SW,234,8.0,12.0,66,0.00,,,0.00,Wunderground v.1.15,2013-10-26 13:38:00,
2013-10-26 08:44:00,45.0,34.3,29.90,SW,218,8.0,13.0,66,0.00,,,0.00,Wunderground v.1.15,2013-10-26 13:44:00,
2013-10-26 08:50:00,45.2,34.1,29.90,WSW,248,10.0,10.0,65,0.00,,,0.00,Wunderground v.1.15,2013-10-26 13:50:00,
2013-10-26 08:56:00,45.1,34.4,29.90,West,269,11.0,11.0,66,0.00,,,0.00,Wunderground v.1.15,2013-10-26 13:56:00,
2013-10-26 09:02:00,45.2,34.5,29.89,West,259,10.0,13.0,66,0.00,,,0.00,Wunderground v.1.15,2013-10-26 14:02:00,
2013-10-26 09:08:00,45.8,34.7,29.89,WSW,257,11.0,18.0,65,0.00,,,0.00,Wunderground v.1.15,2013-10-26 14:08:00,
2013-10-26 09:14:00,46.2,34.7,29.90,WSW,250,12.0,14.0,64,0.00,,,0.00,Wunderground v.1.15,2013-10-26 14:14:00,
2013-10-26 09:20:00,46.7,35.2,29.89,West,265,12.0,16.0,64,0.00,,,0.00,Wunderground v.1.15,2013-10-26 14:20:00,
2013-10-26 09:26:00,46.9,35.7,29.89,WSW,249,13.0,16.0,65,0.00,,,0.00,Wunderground v.1.15,2013-10-26 14:26:00,
2013-10-26 09:32:00,47.3,35.3,29.89,WSW,250,13.0,15.0,63,0.00,,,0.00,Wunderground v.1.15,2013-10-26 14:32:00,
2013-10-26 09:38:00,47.8,35.8,29.89,WSW,256,13.0,15.0,63,0.00,,,0.00,Wunderground v.1.15,2013-10-26 14:38:00,
2013-10-26 09:44:00,48.2,35.8,29.88,West,272,14.0,18.0,62,0.00,,,0.00,Wunderground v.1.15,2013-10-26 14:44:00,
2013-10-26 09:50:00,48.9,36.4,29.89,West,261,13.0,16.0,62,0.00,,,0.00,Wunderground v.1.15,2013-10-26 14:50:00,
2013-10-26 09:56:00,48.8,35.9,29.88,WSW,258,15.0,19.0,61,0.00,,,0.00,Wunderground v.1.15,2013-10-26 14:56:00,
2013-10-26 10:02:00,48.7,36.3,29.89,West,275,16.0,16.0,62,0.00,,,0.00,Wunderground v.1.15,2013-10-26 15:02:00,
2013-10-26 10:08:00,49.1,36.6,29.89,West,278,13.0,16.0,62,0.00,,,0.00,Wunderground v.1.15,2013-10-26 15:08:00,
2013-10-26 10:14:00,49.3,36.4,29.89,West,276,14.0,16.0,61,0.00,,,0.00,Wunderground v.1.15,2013-10-26 15:14:00,
2013-10-26 10:20:00,49.1,35.8,29.88,West,276,15.0,17.0,60,0.00,,,0.00,Wunderground v.1.15,2013-10-26 15:20:00,
2013-10-26 10:26:00,49.1,36.2,29.89,West,267,15.0,17.0,61,0.00,,,0.00,Wunderground v.1.15,2013-10-26 15:26:00,
2013-10-26 10:32:00,49.0,36.5,29.89,West,281,15.0,15.0,62,0.00,,,0.00,Wunderground v.1.15,2013-10-26 15:32:00,
2013-10-26 10:38:00,49.3,36.4,29.89,WSW,252,14.0,15.0,61,0.00,,,0.00,Wunderground v.1.15,2013-10-26 15:38:00,
2013-10-26 10:44:00,49.9,37.0,29.89,West,269,14.0,15.0,61,0.00,,,0.00,Wunderground v.1.15,2013-10-26 15:44:00,
2013-10-26 10:50:00,50.5,38.0,29.89,West,263,14.0,16.0,62,0.00,,,0.00,Wunderground v.1.15,2013-10-26 15:50:00,
2013-10-26 10:56:00,50.7,38.1,29.90,WSW,253,15.0,20.0,62,0.00,,,0.00,Wunderground v.1.15,2013-10-26 15:56:00,
2013-10-26 11:02:00,51.0,37.2,29.90,West,267,15.0,16.0,59,0.00,,,0.00,Wunderground v.1.15,2013-10-26 16:02:00,
2013-10-26 11:08:00,50.8,37.0,29.90,West,279,16.0,18.0,59,0.00,,,0.00,Wunderground v.1.15,2013-10-26 16:08:00,
2013-10-26 11:14:00,50.8,37.0,29.90,West,270,15.0,18.0,59,0.00,,,0.00,Wunderground v.1.15,2013-10-26 16:14:00,
2013-10-26 11:20:00,51.4,38.0,29.90,West,264,14.0,14.0,60,0.00,,,0.00,Wunderground v.1.15,2013-10-26 16:20:00,
2013-10-26 11:26:00,51.0,37.6,29.90,West,269,14.0,14.0,60,0.00,,,0.00,Wunderground v.1.15,2013-10-26 16:26:00,
2013-10-26 11:32:00,50.9,37.5,29.90,West,277,14.0,16.0,60,0.00,,,0.00,Wunderground v.1.15,2013-10-26 16:32:00,
2013-10-26 11:38:00,51.3,37.9,29.90,West,271,13.0,16.0,60,0.00,,,0.00,Wunderground v.1.15,2013-10-26 16:38:00,
2013-10-26 11:44:00,51.5,37.6,29.90,West,276,15.0,17.0,59,0.00,,,0.00,Wunderground v.1.15,2013-10-26 16:44:00,
2013-10-26 11:50:00,51.7,37.8,29.90,West,273,15.0,15.0,59,0.00,,,0.00,Wunderground v.1.15,2013-10-26 16:50:00,
2013-10-26 11:56:00,52.3,38.0,29.90,WNW,288,14.0,18.0,58,0.00,,,0.00,Wunderground v.1.15,2013-10-26 16:56:00,
2013-10-26 12:02:00,51.9,38.0,29.90,WNW,286,15.0,15.0,59,0.00,,,0.00,Wunderground v.1.15,2013-10-26 17:02:00,
2013-10-26 12:08:00,52.1,37.8,29.90,West,270,15.0,19.0,58,0.00,,,0.00,Wunderground v.1.15,2013-10-26 17:08:00,
2013-10-26 12:14:00,52.4,38.0,29.90,NW,308,15.0,15.0,58,0.00,,,0.00,Wunderground v.1.15,2013-10-26 17:14:00,
2013-10-26 12:20:00,52.8,37.5,29.91,NW,306,13.0,13.0,56,0.00,,,0.00,Wunderground v.1.15,2013-10-26 17:20:00,
2013-10-26 12:26:00,52.1,36.9,29.91,West,260,14.0,16.0,56,0.00,,,0.00,Wunderground v.1.15,2013-10-26 17:26:00,
2013-10-26 12:32:00,51.3,37.0,29.91,NW,307,15.0,16.0,58,0.00,,,0.00,Wunderground v.1.15,2013-10-26 17:32:00,
2013-10-26 12:38:00,51.4,37.5,29.91,WNW,286,14.0,16.0,59,0.00,,,0.00,Wunderground v.1.15,2013-10-26 17:38:00,
2013-10-26 12:44:00,51.0,36.7,29.91,WNW,288,14.0,19.0,58,0.00,,,0.00,Wunderground v.1.15,2013-10-26 17:44:00,
2013-10-26 12:50:00,51.2,36.0,29.91,WNW,289,14.0,15.0,56,0.00,,,0.00,Wunderground v.1.15,2013-10-26 17:50:00,
2013-10-26 12:56:00,51.1,35.5,29.91,WNW,301,13.0,15.0,55,0.00,,,0.00,Wunderground v.1.15,2013-10-26 17:56:00,
2013-10-26 13:02:00,51.1,35.0,29.91,WNW,288,14.0,17.0,54,0.00,,,0.00,Wunderground v.1.15,2013-10-26 18:02:00,
2013-10-26 13:08:00,51.4,35.3,29.91,WNW,294,16.0,17.0,54,0.00,,,0.00,Wunderground v.1.15,2013-10-26 18:08:00,
2013-10-26 13:14:00,51.5,33.0,29.91,West,278,13.0,16.0,49,0.00,,,0.00,Wunderground v.1.15,2013-10-26 18:14:00,
2013-10-26 13:20:00,51.8,32.7,29.92,West,280,12.0,19.0,48,0.00,,,0.00,Wunderground v.1.15,2013-10-26 18:20:00,
2013-10-26 13:26:00,50.7,32.7,29.92,WNW,288,14.0,20.0,50,0.00,,,0.00,Wunderground v.1.15,2013-10-26 18:26:00,
2013-10-26 13:32:00,50.9,33.4,29.92,WNW,291,16.0,20.0,51,0.00,,,0.00,Wunderground v.1.15,2013-10-26 18:32:00,
2013-10-26 13:38:00,52.1,33.5,29.92,WNW,286,14.0,20.0,49,0.00,,,0.00,Wunderground v.1.15,2013-10-26 18:38:00,
2013-10-26 13:44:00,52.9,33.2,29.92,WNW,293,14.0,16.0,47,0.00,,,0.00,Wunderground v.1.15,2013-10-26 18:44:00,
2013-10-26 13:50:00,52.8,31.5,29.92,WNW,293,16.0,16.0,44,0.00,,,0.00,Wunderground v.1.15,2013-10-26 18:50:00,
2013-10-26 13:56:00,53.1,33.9,29.92,WNW,286,16.0,17.0,48,0.00,,,0.00,Wunderground v.1.15,2013-10-26 18:56:00,
2013-10-26 14:02:00,53.6,35.9,29.92,West,279,16.0,18.0,51,0.00,,,0.00,Wunderground v.1.15,2013-10-26 19:02:00,
2013-10-26 14:08:00,53.2,34.0,29.93,WNW,290,15.0,18.0,48,0.00,,,0.00,Wunderground v.1.15,2013-10-26 19:08:00,
2013-10-26 14:14:00,51.5,33.0,29.93,WNW,290,13.0,17.0,49,0.00,,,0.00,Wunderground v.1.15,2013-10-26 19:14:00,
2013-10-26 14:20:00,52.8,35.2,29.93,WNW,291,13.0,20.0,51,0.00,,,0.00,Wunderground v.1.15,2013-10-26 19:20:00,
2013-10-26 14:26:00,52.1,32.5,29.94,West,280,15.0,20.0,47,0.00,,,0.00,Wunderground v.1.15,2013-10-26 19:26:00,
2013-10-26 14:32:00,51.8,33.2,29.94,WNW,288,14.0,16.0,49,0.00,,,0.00,Wunderground v.1.15,2013-10-26 19:32:00,
2013-10-26 14:38:00,52.5,32.3,29.94,WNW,286,14.0,17.0,46,0.00,,,0.00,Wunderground v.1.15,2013-10-26 19:38:00,
2013-10-26 14:44:00,51.9,33.3,29.94,West,274,15.0,16.0,49,0.00,,,0.00,Wunderground v.1.15,2013-10-26 19:44:00,
2013-10-26 14:50:00,51.8,32.7,29.94,West,273,12.0,16.0,48,0.00,,,0.00,Wunderground v.1.15,2013-10-26 19:50:00,
2013-10-26 14:56:00,51.7,32.6,29.94,WNW,298,11.0,16.0,48,0.00,,,0.00,Wunderground v.1.15,2013-10-26 19:56:00,
2013-10-26 15:02:00,51.8,33.2,29.95,NW,313,13.0,13.0,49,0.00,,,0.00,Wunderground v.1.15,2013-10-26 20:02:00,
2013-10-26 15:08:00,51.7,33.1,29.95,WNW,298,13.0,17.0,49,0.00,,,0.00,Wunderground v.1.15,2013-10-26 20:08:00,
2013-10-26 15:14:00,51.6,33.0,29.95,WNW,284,13.0,15.0,49,0.00,,,0.00,Wunderground v.1.15,2013-10-26 20:14:00,
2013-10-26 15:20:00,51.9,33.3,29.95,WNW,286,11.0,13.0,49,0.00,,,0.00,Wunderground v.1.15,2013-10-26 20:20:00,
2013-10-26 15:26:00,51.8,32.7,29.96,West,269,11.0,15.0,48,0.00,,,0.00,Wunderground v.1.15,2013-10-26 20:26:00,
2013-10-26 15:32:00,51.7,33.1,29.96,West,269,11.0,12.0,49,0.00,,,0.00,Wunderground v.1.15,2013-10-26 20:32:00,
2013-10-26 15:38:00,51.6,32.5,29.96,West,261,11.0,14.0,48,0.00,,,0.00,Wunderground v.1.15,2013-10-26 20:38:00,
2013-10-26 15:44:00,51.7,32.6,29.97,West,265,11.0,13.0,48,0.00,,,0.00,Wunderground v.1.15,2013-10-26 20:44:00,
2013-10-26 15:50:00,51.5,32.4,29.97,North,360,8.0,8.0,48,0.00,,,0.00,Wunderground v.1.15,2013-10-26 20:50:00,
2013-10-26 15:56:00,51.3,32.3,29.97,NNW,338,9.0,15.0,48,0.00,,,0.00,Wunderground v.1.15,2013-10-26 20:56:00,
2013-10-26 16:02:00,51.2,33.2,29.98,North,5,8.0,9.0,50,0.00,,,0.00,Wunderground v.1.15,2013-10-26 21:02:00,
2013-10-26 16:08:00,51.3,32.3,29.98,West,277,6.0,12.0,48,0.00,,,0.00,Wunderground v.1.15,2013-10-26 21:08:00,
2013-10-26 16:14:00,51.3,32.8,29.98,NW,307,8.0,15.0,49,0.00,,,0.00,Wunderground v.1.15,2013-10-26 21:14:00,
2013-10-26 16:20:00,51.3,33.3,29.98,NW,308,8.0,8.0,50,0.00,,,0.00,Wunderground v.1.15,2013-10-26 21:20:00,
2013-10-26 16:26:00,51.6,33.0,29.98,West,277,7.0,10.0,49,0.00,,,0.00,Wunderground v.1.15,2013-10-26 21:26:00,
2013-10-26 16:32:00,51.8,32.7,29.99,NW,306,8.0,11.0,48,0.00,,,0.00,Wunderground v.1.15,2013-10-26 21:32:00,
2013-10-26 16:38:00,52.2,32.0,29.99,WNW,300,10.0,13.0,46,0.00,,,0.00,Wunderground v.1.15,2013-10-26 21:38:00,
2013-10-26 16:44:00,52.1,33.0,29.99,WNW,296,12.0,12.0,48,0.00,,,0.00,Wunderground v.1.15,2013-10-26 21:44:00,
2013-10-26 16:50:00,51.6,31.5,29.99,West,276,12.0,12.0,46,0.00,,,0.00,Wunderground v.1.15,2013-10-26 21:50:00,
2013-10-26 16:56:00,51.5,31.4,30.00,NNE,18,9.0,12.0,46,0.00,,,0.00,Wunderground v.1.15,2013-10-26 21:56:00,
2013-10-26 17:02:00,51.2,31.6,30.00,North,5,6.0,8.0,47,0.00,,,0.00,Wunderground v.1.15,2013-10-26 22:02:00,
2013-10-26 17:08:00,50.8,30.7,30.00,North,5,7.0,8.0,46,0.00,,,0.00,Wunderground v.1.15,2013-10-26 22:08:00,
2013-10-26 17:14:00,50.6,31.6,30.00,WNW,298,5.0,6.0,48,0.00,,,0.00,Wunderground v.1.15,2013-10-26 22:14:00,
2013-10-26 17:20:00,50.5,31.5,30.00,WNW,288,6.0,6.0,48,0.00,,,0.00,Wunderground v.1.15,2013-10-26 22:20:00,
2013-10-26 17:26:00,50.3,31.3,30.01,WNW,282,6.0,6.0,48,0.00,,,0.00,Wunderground v.1.15,2013-10-26 22:26:00,
2013-10-26 17:32:00,49.8,31.4,30.01,NNW,333,4.0,5.0,49,0.00,,,0.00,Wunderground v.1.15,2013-10-26 22:32:00,
2013-10-26 17:38:00,49.2,31.3,30.01,WNW,284,4.0,5.0,50,0.00,,,0.00,Wunderground v.1.15,2013-10-26 22:38:00,
2013-10-26 17:44:00,48.8,31.5,30.01,WNW,302,5.0,9.0,51,0.00,,,0.00,Wunderground v.1.15,2013-10-26 22:44:00,
2013-10-26 17:50:00,48.5,31.2,30.01,WNW,288,7.0,7.0,51,0.00,,,0.00,Wunderground v.1.15,2013-10-26 22:50:00,
2013-10-26 17:56:00,47.9,31.6,30.01,WNW,298,6.0,7.0,53,0.00,,,0.00,Wunderground v.1.15,2013-10-26 22:56:00,
2013-10-26 18:02:00,47.2,31.4,30.02,WNW,296,4.0,4.0,54,0.00,,,0.00,Wunderground v.1.15,2013-10-26 23:02:00,
2013-10-26 18:08:00,46.3,31.4,30.02,WNW,296,1.0,4.0,56,0.00,,,0.00,Wunderground v.1.15,2013-10-26 23:08:00,
2013-10-26 18:14:00,45.7,30.9,30.02,WNW,292,1.0,4.0,56,0.00,,,0.00,Wunderground v.1.15,2013-10-26 23:14:00,
2013-10-26 18:20:00,45.5,30.7,30.02,WNW,292,3.0,5.0,56,0.00,,,0.00,Wunderground v.1.15,2013-10-26 23:20:00,
2013-10-26 18:26:00,45.1,30.3,30.03,WNW,292,4.0,7.0,56,0.00,,,0.00,Wunderground v.1.15,2013-10-26 23:26:00,
2013-10-26 18:32:00,44.5,30.2,30.03,WNW,292,3.0,3.0,57,0.00,,,0.00,Wunderground v.1.15,2013-10-26 23:32:00,
2013-10-26 18:38:00,43.7,30.3,30.04,WNW,292,2.0,3.0,59,0.00,,,0.00,Wunderground v.1.15,2013-10-26 23:38:00,
2013-10-26 18:44:00,43.5,30.1,30.04,WNW,292,1.0,2.0,59,0.00,,,0.00,Wunderground v.1.15,2013-10-26 23:44:00,
2013-10-26 18:50:00,43.2,29.8,30.04,WNW,294,1.0,2.0,59,0.00,,,0.00,Wunderground v.1.15,2013-10-26 23:50:00,
2013-10-26 18:56:00,42.5,30.0,30.04,WNW,294,0.0,0.0,61,0.00,,,0.00,Wunderground v.1.15,2013-10-26 23:56:00,
2013-10-26 19:02:00,41.4,29.7,30.04,WNW,294,0.0,0.0,63,0.00,,,0.00,Wunderground v.1.15,2013-10-27 00:02:00,
2013-10-26 19:08:00,40.5,29.7,30.05,WNW,294,0.0,0.0,65,0.00,,,0.00,Wunderground v.1.15,2013-10-27 00:08:00,
2013-10-26 19:14:00,40.1,29.6,30.05,WNW,294,0.0,0.0,66,0.00,,,0.00,Wunderground v.1.15,2013-10-27 00:14:00,
2013-10-26 19:20:00,40.7,29.8,30.05,WNW,290,2.0,4.0,65,0.00,,,0.00,Wunderground v.1.15,2013-10-27 00:20:00,
2013-10-26 19:26:00,41.2,29.9,30.05,WNW,292,4.0,4.0,64,0.00,,,0.00,Wunderground v.1.15,2013-10-27 00:26:00,
2013-10-26 19:32:00,41.3,29.6,30.05,WNW,292,1.0,2.0,63,0.00,,,0.00,Wunderground v.1.15,2013-10-27 00:32:00,
2013-10-26 19:38:00,41.0,29.7,30.05,WNW,292,0.0,2.0,64,0.00,,,0.00,Wunderground v.1.15,2013-10-27 00:38:00,
2013-10-26 19:44:00,40.7,29.5,30.06,WNW,292,0.0,3.0,64,0.00,,,0.00,Wunderground v.1.15,2013-10-27 00:44:00,
2013-10-26 19:50:00,40.7,29.5,30.06,WNW,294,3.0,4.0,64,0.00,,,0.00,Wunderground v.1.15,2013-10-27 00:50:00,
2013-10-26 19:56:00,40.6,29.7,30.06,WNW,293,4.0,7.0,65,0.00,,,0.00,Wunderground v.1.15,2013-10-27 00:56:00,
2013-10-26 20:02:00,40.3,29.8,30.06,WNW,294,3.0,3.0,66,0.00,,,0.00,Wunderground v.1.15,2013-10-27 01:02:00,
2013-10-26 20:08:00,39.7,29.6,30.06,WNW,294,0.0,3.0,67,0.00,,,0.00,Wunderground v.1.15,2013-10-27 01:08:00,
2013-10-26 20:14:00,39.0,29.3,30.06,WNW,294,0.0,0.0,68,0.00,,,0.00,Wunderground v.1.15,2013-10-27 01:14:00,
2013-10-26 20:20:00,38.3,29.4,30.06,WNW,294,0.0,0.0,70,0.00,,,0.00,Wunderground v.1.15,2013-10-27 01:20:00,
2013-10-26 20:26:00,38.4,29.1,30.06,WNW,294,0.0,0.0,69,0.00,,,0.00,Wunderground v.1.15,2013-10-27 01:26:00,
2013-10-26 20:32:00,38.0,29.1,30.06,WNW,294,0.0,0.0,70,0.00,,,0.00,Wunderground v.1.15,2013-10-27 01:32:00,
2013-10-26 20:38:00,38.2,29.3,30.07,WNW,294,0.0,0.0,70,0.00,,,0.00,Wunderground v.1.15,2013-10-27 01:38:00,
2013-10-26 20:44:00,38.7,29.0,30.07,WNW,294,0.0,0.0,68,0.00,,,0.00,Wunderground v.1.15,2013-10-27 01:44:00,
2013-10-26 20:50:00,38.2,28.9,30.07,WNW,294,0.0,0.0,69,0.00,,,0.00,Wunderground v.1.15,2013-10-27 01:50:00,
2013-10-26 20:56:00,37.3,28.8,30.07,WNW,294,0.0,0.0,71,0.00,,,0.00,Wunderground v.1.15,2013-10-27 01:56:00,
2013-10-26 21:02:00,36.9,28.4,30.07,WNW,294,0.0,0.0,71,0.00,,,0.00,Wunderground v.1.15,2013-10-27 02:02:00,
2013-10-26 21:08:00,37.0,28.5,30.08,WNW,294,0.0,0.0,71,0.00,,,0.00,Wunderground v.1.15,2013-10-27 02:08:00,
2013-10-26 21:14:00,37.1,28.6,30.08,WNW,294,0.0,0.0,71,0.00,,,0.00,Wunderground v.1.15,2013-10-27 02:14:00,
2013-10-26 21:20:00,37.0,28.5,30.08,WNW,294,0.0,0.0,71,0.00,,,0.00,Wunderground v.1.15,2013-10-27 02:20:00,
2013-10-26 21:26:00,36.6,28.1,30.08,WNW,294,0.0,0.0,71,0.00,,,0.00,Wunderground v.1.15,2013-10-27 02:26:00,
2013-10-26 21:32:00,36.0,27.8,30.09,WNW,294,0.0,0.0,72,0.00,,,0.00,Wunderground v.1.15,2013-10-27 02:32:00,
2013-10-26 21:38:00,35.5,27.7,30.08,WNW,294,0.0,0.0,73,0.00,,,0.00,Wunderground v.1.15,2013-10-27 02:38:00,
2013-10-26 21:44:00,35.0,27.2,30.09,WNW,294,0.0,0.0,73,0.00,,,0.00,Wunderground v.1.15,2013-10-27 02:44:00,
2013-10-26 21:50:00,34.8,27.4,30.09,WNW,294,0.0,0.0,74,0.00,,,0.00,Wunderground v.1.15,2013-10-27 02:50:00,
2013-10-26 21:56:00,33.5,26.4,30.09,WNW,294,0.0,0.0,75,0.00,,,0.00,Wunderground v.1.15,2013-10-27 02:56:00,
2013-10-26 22:02:00,32.5,26.1,30.09,WNW,294,0.0,0.0,77,0.00,,,0.00,Wunderground v.1.15,2013-10-27 03:02:00,
2013-10-26 22:08:00,31.7,25.9,30.09,WNW,294,0.0,0.0,79,0.00,,,0.00,Wunderground v.1.15,2013-10-27 03:08:00,
2013-10-26 22:14:00,31.1,25.7,30.09,WNW,294,0.0,0.0,80,0.00,,,0.00,Wunderground v.1.15,2013-10-27 03:14:00,
2013-10-26 22:20:00,30.7,25.9,30.09,WNW,294,0.0,0.0,82,0.00,,,0.00,Wunderground v.1.15,2013-10-27 03:20:00,
2013-10-26 22:26:00,30.3,25.8,30.09,WNW,294,0.0,0.0,83,0.00,,,0.00,Wunderground v.1.15,2013-10-27 03:26:00,
2013-10-26 22:32:00,30.1,25.8,30.09,WNW,294,0.0,0.0,84,0.00,,,0.00,Wunderground v.1.15,2013-10-27 03:32:00,
2013-10-26 22:38:00,29.9,25.7,30.08,WNW,294,0.0,0.0,84,0.00,,,0.00,Wunderground v.1.15,2013-10-27 03:38:00,
2013-10-26 22:44:00,29.8,25.8,30.08,WNW,294,0.0,0.0,85,0.00,,,0.00,Wunderground v.1.15,2013-10-27 03:44:00,
2013-10-26 22:50:00,29.8,25.8,30.08,WNW,294,0.0,0.0,85,0.00,,,0.00,Wunderground v.1.15,2013-10-27 03:50:00,
2013-10-26 22:56:00,29.7,25.7,30.08,WNW,294,0.0,0.0,85,0.00,,,0.00,Wunderground v.1.15,2013-10-27 03:56:00,
2013-10-26 23:02:00,29.5,25.5,30.08,WNW,294,0.0,0.0,85,0.00,,,0.00,Wunderground v.1.15,2013-10-27 04:02:00,
2013-10-26 23:04:00,29.4,25.4,30.08,WNW,294,0.0,0.0,85,0.00,,,0.00,Wunderground v.1.15,2013-10-27 04:04:00,
2013-10-26 23:06:00,29.4,25.4,30.08,WNW,294,0.0,0.0,85,0.00,,,0.00,Wunderground v.1.15,2013-10-27 04:06:00,
2013-10-26 23:10:00,29.3,25.6,30.08,WNW,294,0.0,0.0,86,0.00,,,0.00,Wunderground v.1.15,2013-10-27 04:10:00,
2013-10-26 23:16:00,29.2,25.5,30.08,WNW,294,0.0,0.0,86,0.00,,,0.00,Wunderground v.1.15,2013-10-27 04:16:00,
2013-10-26 23:18:00,29.1,25.4,30.08,WNW,294,0.0,0.0,86,0.00,,,0.00,Wunderground v.1.15,2013-10-27 04:18:00,
2013-10-26 23:24:00,29.2,25.5,30.08,WNW,294,0.0,0.0,86,0.00,,,0.00,Wunderground v.1.15,2013-10-27 04:24:00,
2013-10-26 23:30:00,29.2,25.5,30.08,WNW,294,0.0,0.0,86,0.00,,,0.00,Wunderground v.1.15,2013-10-27 04:30:00,
2013-10-26 23:36:00,29.0,25.3,30.08,WNW,294,0.0,0.0,86,0.00,,,0.00,Wunderground v.1.15,2013-10-27 04:36:00,
2013-10-26 23:38:00,28.9,25.2,30.08,WNW,294,0.0,0.0,86,0.00,,,0.00,Wunderground v.1.15,2013-10-27 04:38:00,
2013-10-26 23:44:00,28.8,25.1,30.08,WNW,294,0.0,0.0,86,0.00,,,0.00,Wunderground v.1.15,2013-10-27 04:44:00,
2013-10-26 23:50:00,28.6,24.9,30.08,WNW,294,0.0,0.0,86,0.00,,,0.00,Wunderground v.1.15,2013-10-27 04:50:00,
2013-10-26 23:56:00,28.6,25.2,30.08,WNW,294,0.0,0.0,87,0.00,,,0.00,Wunderground v.1.15,2013-10-27 04:56:00,